createdAt,value
2018-12-20T00:00:50.083Z,94.64
2018-12-20T00:03:19.698Z,94.43
2018-12-20T00:05:49.946Z,94.97
2018-12-20T00:08:19.530Z,94.66
2018-12-20T00:10:49.003Z,94.44
2018-12-20T00:13:18.576Z,95.17
2018-12-20T00:15:48.045Z,94.43
2018-12-20T00:18:17.383Z,95.01
2018-12-20T00:20:46.734Z,95.10
2018-12-20T00:23:16.200Z,95.38
2018-12-20T00:25:45.635Z,94.97
2018-12-20T00:28:15.035Z,94.86
2018-12-20T00:30:44.447Z,95.50
2018-12-20T00:33:13.986Z,95.49
2018-12-20T00:35:43.345Z,95.62
2018-12-20T00:38:12.909Z,95.37
2018-12-20T00:40:42.287Z,94.69
2018-12-20T00:43:11.930Z,95.44
2018-12-20T00:45:41.418Z,94.50
2018-12-20T00:48:10.821Z,94.73
2018-12-20T00:50:40.246Z,95.32
2018-12-20T00:53:09.733Z,95.30
2018-12-20T00:55:39.125Z,94.57
2018-12-20T00:58:08.577Z,94.96
2018-12-20T01:03:38.353Z,95.23
2018-12-20T01:06:07.910Z,95.38
2018-12-20T01:08:37.374Z,94.88
2018-12-20T01:11:07.377Z,95.26
2018-12-20T01:13:37.159Z,94.89
2018-12-20T01:16:06.676Z,95.52
2018-12-20T01:18:35.988Z,95.10
2018-12-20T01:21:05.574Z,95.41
2018-12-20T01:23:35.002Z,95.28
2018-12-20T01:26:04.950Z,94.90
2018-12-20T01:28:34.479Z,95.18
2018-12-20T01:31:04.034Z,95.08
2018-12-20T01:33:33.439Z,95.14
2018-12-20T01:36:02.834Z,94.94
2018-12-20T01:38:32.230Z,95.39
2018-12-20T01:41:01.563Z,95.49
2018-12-20T01:43:30.971Z,95.43
2018-12-20T01:46:00.534Z,94.66
2018-12-20T01:48:29.906Z,94.99
2018-12-20T01:50:59.445Z,94.89
2018-12-20T01:53:29.005Z,95.09
2018-12-20T01:55:58.445Z,94.72
2018-12-20T01:58:27.932Z,95.58
2018-12-20T02:00:57.351Z,94.97
2018-12-20T02:03:26.645Z,94.94
2018-12-20T02:05:55.940Z,95.53
2018-12-20T02:08:25.303Z,95.51
2018-12-20T02:10:54.676Z,95.53
2018-12-20T02:13:24.004Z,95.54
2018-12-20T02:15:53.534Z,94.95
2018-12-20T02:18:23.264Z,94.91
2018-12-20T02:20:52.834Z,95.46
2018-12-20T02:23:22.208Z,94.93
2018-12-20T02:25:51.510Z,95.81
2018-12-20T02:28:21.054Z,95.13
2018-12-20T02:30:50.442Z,95.20
2018-12-20T02:33:20.032Z,95.22
2018-12-20T02:35:49.488Z,95.25
2018-12-20T02:38:19.121Z,95.47
2018-12-20T02:40:48.478Z,95.25
2018-12-20T02:43:17.818Z,95.76
2018-12-20T02:45:47.270Z,95.64
2018-12-20T02:48:16.990Z,94.68
2018-12-20T02:50:46.302Z,94.69
2018-12-20T02:53:16.331Z,95.42
2018-12-20T02:55:45.697Z,95.55
2018-12-20T02:58:14.954Z,94.81
2018-12-20T03:00:44.282Z,94.67
2018-12-20T03:03:14.785Z,94.86
2018-12-20T03:05:44.385Z,95.10
2018-12-20T03:08:13.866Z,95.58
2018-12-20T03:10:43.240Z,95.25
2018-12-20T03:13:12.697Z,95.54
2018-12-20T03:15:42.123Z,94.84
2018-12-20T03:18:11.537Z,95.54
2018-12-20T03:20:41.137Z,95.72
2018-12-20T03:23:10.446Z,95.67
2018-12-20T03:25:39.962Z,95.66
2018-12-20T03:28:09.249Z,94.96
2018-12-20T03:30:38.851Z,95.85
2018-12-20T03:33:10.453Z,95.77
2018-12-20T03:35:39.748Z,95.80
2018-12-20T03:38:09.168Z,94.76
2018-12-20T03:40:38.770Z,95.81
2018-12-20T03:43:08.228Z,95.18
2018-12-20T03:45:38.594Z,96.02
2018-12-20T03:48:08.684Z,95.95
2018-12-20T03:50:38.097Z,95.92
2018-12-20T03:53:07.421Z,95.85
2018-12-20T03:55:36.868Z,95.53
2018-12-20T03:58:06.305Z,95.14
2018-12-20T04:00:35.646Z,95.19
2018-12-20T04:03:12.018Z,95.55
2018-12-20T04:08:25.528Z,95.95
2018-12-20T04:10:54.949Z,96.06
2018-12-20T04:13:24.558Z,95.22
2018-12-20T04:15:54.068Z,95.52
2018-12-20T04:18:23.359Z,95.40
2018-12-20T04:20:52.798Z,95.18
2018-12-20T04:23:22.124Z,95.96
2018-12-20T04:25:51.817Z,95.77
2018-12-20T04:28:21.161Z,95.84
2018-12-20T04:30:50.627Z,95.59
2018-12-20T04:33:20.033Z,95.27
2018-12-20T04:35:49.590Z,95.93
2018-12-20T04:38:19.263Z,95.31
2018-12-20T04:40:48.891Z,96.16
2018-12-20T04:43:18.180Z,96.08
2018-12-20T04:45:47.659Z,95.51
2018-12-20T04:48:16.984Z,95.27
2018-12-20T04:50:46.894Z,96.20
2018-12-20T04:53:16.317Z,95.45
2018-12-20T04:55:45.871Z,96.31
2018-12-20T04:58:15.422Z,96.44
2018-12-20T05:00:45.070Z,96.06
2018-12-20T05:03:14.417Z,95.90
2018-12-20T05:05:43.917Z,96.30
2018-12-20T05:08:13.369Z,95.33
2018-12-20T05:10:42.925Z,95.89
2018-12-20T05:13:12.251Z,96.44
2018-12-20T05:15:41.512Z,96.29
2018-12-20T05:18:11.047Z,96.30
2018-12-20T05:20:40.328Z,95.86
2018-12-20T05:23:09.910Z,95.72
2018-12-20T05:25:39.509Z,95.20
2018-12-20T05:28:08.841Z,96.35
2018-12-20T05:30:38.394Z,95.39
2018-12-20T05:33:07.865Z,96.40
2018-12-20T05:35:37.201Z,96.47
2018-12-20T05:38:06.471Z,96.18
2018-12-20T05:40:35.730Z,96.49
2018-12-20T05:43:05.206Z,96.12
2018-12-20T05:45:34.661Z,96.15
2018-12-20T05:48:04.365Z,96.30
2018-12-20T05:50:33.725Z,95.77
2018-12-20T05:53:03.203Z,95.30
2018-12-20T05:55:32.533Z,95.52
2018-12-20T05:58:01.855Z,96.42
2018-12-20T06:00:31.341Z,95.49
2018-12-20T06:03:00.643Z,95.53
2018-12-20T06:05:30.081Z,96.70
2018-12-20T06:07:59.576Z,96.30
2018-12-20T06:10:29.060Z,96.51
2018-12-20T06:12:58.414Z,95.63
2018-12-20T06:15:27.918Z,96.17
2018-12-20T06:17:57.222Z,95.63
2018-12-20T06:20:26.638Z,96.60
2018-12-20T06:22:56.477Z,96.40
2018-12-20T06:25:25.769Z,96.32
2018-12-20T06:27:55.011Z,95.79
2018-12-20T06:30:24.357Z,95.81
2018-12-20T06:32:53.686Z,96.44
2018-12-20T06:35:22.917Z,95.87
2018-12-20T06:37:53.043Z,97.05
2018-12-20T06:40:22.295Z,96.87
2018-12-20T06:42:51.546Z,95.84
2018-12-20T06:45:21.873Z,96.63
2018-12-20T06:47:51.189Z,96.37
2018-12-20T06:50:20.438Z,95.62
2018-12-20T06:52:49.727Z,95.75
2018-12-20T06:55:19.026Z,96.72
2018-12-20T06:57:48.654Z,95.58
2018-12-20T07:00:18.901Z,95.10
2018-12-20T07:02:48.126Z,96.39
2018-12-20T07:05:17.586Z,96.01
2018-12-20T07:07:47.088Z,96.43
2018-12-20T07:10:16.321Z,95.18
2018-12-20T07:12:45.584Z,95.64
2018-12-20T07:15:14.837Z,96.15
2018-12-20T07:17:44.177Z,94.96
2018-12-20T07:23:15.830Z,96.00
2018-12-20T07:25:45.294Z,96.09
2018-12-20T07:28:15.501Z,95.19
2018-12-20T07:30:44.757Z,95.58
2018-12-20T07:33:14.017Z,96.08
2018-12-20T07:35:43.741Z,94.96
2018-12-20T07:38:13.174Z,96.01
2018-12-20T07:40:42.826Z,96.11
2018-12-20T07:43:12.053Z,96.21
2018-12-20T07:45:42.168Z,95.00
2018-12-20T07:48:11.402Z,95.59
2018-12-20T07:50:40.743Z,95.48
2018-12-20T07:53:10.006Z,95.00
2018-12-20T07:55:39.266Z,95.18
2018-12-20T07:58:08.534Z,96.29
2018-12-20T08:00:37.867Z,96.40
2018-12-20T08:03:07.157Z,95.51
2018-12-20T08:05:36.425Z,95.62
2018-12-20T08:08:05.831Z,96.12
2018-12-20T08:10:35.106Z,95.68
2018-12-20T08:13:04.447Z,96.21
2018-12-20T08:15:33.794Z,95.93
2018-12-20T08:18:03.191Z,96.02
2018-12-20T08:20:32.555Z,95.33
2018-12-20T08:23:01.983Z,95.93
2018-12-20T08:25:31.525Z,95.97
2018-12-20T08:28:01.701Z,94.64
2018-12-20T08:30:30.990Z,95.13
2018-12-20T08:33:00.303Z,95.53
2018-12-20T08:35:29.687Z,95.13
2018-12-20T08:37:59.055Z,95.43
2018-12-20T08:40:28.438Z,94.43
2018-12-20T08:42:57.718Z,95.18
2018-12-20T08:45:27.126Z,95.44
2018-12-20T08:47:56.509Z,93.99
2018-12-20T08:50:25.979Z,94.33
2018-12-20T08:52:55.261Z,94.54
2018-12-20T08:55:24.503Z,95.15
2018-12-20T08:57:53.843Z,94.39
2018-12-20T09:00:23.143Z,95.25
2018-12-20T09:02:52.462Z,94.92
2018-12-20T09:05:21.935Z,95.61
2018-12-20T09:07:51.416Z,95.31
2018-12-20T09:10:20.940Z,95.13
2018-12-20T09:12:50.969Z,94.75
2018-12-20T09:15:20.206Z,93.00
2018-12-20T09:17:49.515Z,92.77
2018-12-20T09:20:18.942Z,92.56
2018-12-20T09:22:48.197Z,93.88
2018-12-20T09:25:17.548Z,92.88
2018-12-20T09:27:46.789Z,92.68
2018-12-20T09:30:16.120Z,92.34
2018-12-20T09:32:45.346Z,92.07
2018-12-20T09:35:14.737Z,93.04
2018-12-20T09:37:44.155Z,93.79
2018-12-20T09:40:13.559Z,93.58
2018-12-20T09:42:42.858Z,93.81
2018-12-20T09:45:12.223Z,93.20
2018-12-20T09:47:46.810Z,93.47
2018-12-20T09:50:16.069Z,93.83
2018-12-20T09:52:45.400Z,93.04
2018-12-20T09:55:14.848Z,93.45
2018-12-20T09:57:44.170Z,93.40
2018-12-20T10:00:13.438Z,93.61
2018-12-20T10:02:42.738Z,92.40
2018-12-20T10:05:12.105Z,91.30
2018-12-20T10:07:41.365Z,91.64
2018-12-20T10:10:10.809Z,90.12
2018-12-20T10:12:40.231Z,89.72
2018-12-20T10:15:09.679Z,89.54
2018-12-20T10:17:39.019Z,89.45
2018-12-20T10:20:12.214Z,89.72
2018-12-20T10:22:42.544Z,90.14
2018-12-20T10:25:12.150Z,89.81
2018-12-20T10:27:41.405Z,90.22
2018-12-20T10:30:11.399Z,90.15
2018-12-20T10:32:40.771Z,89.34
2018-12-20T10:35:10.066Z,89.02
2018-12-20T10:37:39.319Z,87.90
2018-12-20T10:40:08.921Z,88.36
2018-12-20T10:42:38.155Z,89.16
2018-12-20T10:45:08.485Z,89.03
2018-12-20T10:47:37.855Z,88.47
2018-12-20T10:50:08.862Z,88.67
2018-12-20T10:52:38.171Z,87.61
2018-12-20T10:55:07.627Z,88.88
2018-12-20T10:57:37.193Z,87.72
2018-12-20T11:00:07.667Z,87.40
2018-12-20T11:03:42.670Z,87.55
2018-12-20T11:09:37.208Z,86.74
2018-12-20T11:12:08.897Z,88.09
2018-12-20T11:14:38.800Z,87.73
2018-12-20T11:17:08.218Z,88.67
2018-12-20T11:19:37.461Z,87.70
2018-12-20T11:22:06.843Z,87.38
2018-12-20T11:24:36.170Z,87.62
2018-12-20T11:27:05.657Z,86.73
2018-12-20T11:29:34.892Z,87.07
2018-12-20T11:32:04.330Z,86.97
2018-12-20T11:34:33.702Z,86.54
2018-12-20T11:37:02.990Z,85.40
2018-12-20T11:39:32.291Z,85.45
2018-12-20T11:42:01.558Z,85.02
2018-12-20T11:44:30.842Z,83.81
2018-12-20T11:47:00.165Z,84.22
2018-12-20T11:49:29.498Z,83.73
2018-12-20T11:51:58.903Z,84.39
2018-12-20T11:54:28.161Z,84.21
2018-12-20T11:56:57.510Z,83.91
2018-12-20T11:59:26.829Z,84.92
2018-12-20T12:01:56.203Z,84.31
2018-12-20T12:04:25.454Z,83.93
2018-12-20T12:06:54.973Z,82.52
2018-12-20T12:09:25.527Z,81.74
2018-12-20T12:11:55.034Z,81.53
2018-12-20T12:14:24.308Z,81.36
2018-12-20T12:16:53.639Z,81.01
2018-12-20T12:19:22.937Z,81.83
2018-12-20T12:21:52.193Z,80.77
2018-12-20T12:24:21.453Z,81.12
2018-12-20T12:26:50.846Z,81.05
2018-12-20T12:29:20.203Z,81.12
2018-12-20T12:31:49.531Z,80.73
2018-12-20T12:34:18.841Z,80.68
2018-12-20T12:36:48.277Z,80.24
2018-12-20T12:39:17.763Z,81.11
2018-12-20T12:41:47.074Z,81.06
2018-12-20T12:44:16.356Z,81.82
2018-12-20T12:46:45.603Z,81.79
2018-12-20T12:49:14.897Z,80.79
2018-12-20T12:51:52.863Z,80.20
2018-12-20T12:54:15.893Z,81.75
2018-12-20T12:56:45.292Z,81.35
2018-12-20T12:59:14.551Z,81.22
2018-12-20T13:01:43.866Z,81.40
2018-12-20T13:04:13.263Z,81.87
2018-12-20T13:06:43.211Z,80.90
2018-12-20T13:09:12.677Z,80.98
2018-12-20T13:11:42.192Z,80.10
2018-12-20T13:14:11.626Z,80.11
2018-12-20T13:16:41.099Z,80.51
2018-12-20T13:19:10.514Z,80.27
2018-12-20T13:21:39.950Z,80.42
2018-12-20T13:24:09.578Z,80.32
2018-12-20T13:26:39.209Z,79.83
2018-12-20T13:29:08.621Z,80.68
2018-12-20T13:31:38.134Z,79.80
2018-12-20T13:34:07.428Z,80.03
2018-12-20T13:36:36.875Z,80.61
2018-12-20T13:39:08.485Z,80.91
2018-12-20T13:41:37.761Z,80.37
2018-12-20T13:44:07.038Z,80.51
2018-12-20T13:46:39.494Z,80.44
2018-12-20T13:49:08.978Z,81.13
2018-12-20T13:51:38.503Z,80.96
2018-12-20T13:54:07.899Z,80.75
2018-12-20T13:56:37.185Z,81.37
2018-12-20T13:59:06.479Z,82.04
2018-12-20T14:01:36.101Z,81.60
2018-12-20T14:04:06.424Z,81.79
2018-12-20T14:06:36.847Z,82.11
2018-12-20T14:09:09.792Z,82.15
2018-12-20T14:11:39.273Z,82.11
2018-12-20T14:14:08.538Z,82.04
2018-12-20T14:16:37.872Z,81.92
2018-12-20T14:19:07.321Z,82.24
2018-12-20T14:21:36.603Z,81.60
2018-12-20T14:24:05.874Z,81.71
2018-12-20T14:26:35.240Z,82.24
2018-12-20T14:29:04.706Z,82.73
2018-12-20T14:31:33.966Z,81.86
2018-12-20T14:34:03.323Z,82.59
2018-12-20T14:36:32.699Z,82.96
2018-12-20T14:39:02.285Z,82.50
2018-12-20T14:41:31.840Z,82.77
2018-12-20T14:44:01.266Z,82.21
2018-12-20T14:46:30.660Z,83.50
2018-12-20T14:48:59.970Z,82.72
2018-12-20T14:51:29.381Z,83.53
2018-12-20T14:53:58.679Z,84.00
2018-12-20T14:56:28.987Z,84.13
2018-12-20T14:58:58.306Z,84.27
2018-12-20T15:01:27.694Z,84.36
2018-12-20T15:06:51.338Z,85.00
2018-12-20T15:09:20.713Z,85.24
2018-12-20T15:11:49.987Z,85.99
2018-12-20T15:14:19.322Z,86.44
2018-12-20T15:16:48.653Z,86.00
2018-12-20T15:19:17.966Z,86.91
2018-12-20T15:21:47.411Z,87.15
2018-12-20T15:24:16.741Z,87.17
2018-12-20T15:26:46.082Z,86.73
2018-12-20T15:29:15.362Z,86.06
2018-12-20T15:31:53.168Z,86.55
2018-12-20T15:34:16.847Z,87.08
2018-12-20T15:36:46.187Z,86.56
2018-12-20T15:39:15.579Z,86.66
2018-12-20T15:41:44.966Z,87.16
2018-12-20T15:44:14.354Z,86.94
2018-12-20T15:46:43.758Z,87.11
2018-12-20T15:49:13.396Z,87.55
2018-12-20T15:51:43.236Z,88.13
2018-12-20T15:54:12.541Z,88.84
2018-12-20T15:56:41.819Z,88.28
2018-12-20T15:59:11.391Z,89.29
2018-12-20T16:01:40.826Z,88.03
2018-12-20T16:04:10.228Z,86.85
2018-12-20T16:06:39.526Z,86.35
2018-12-20T16:09:09.115Z,86.92
2018-12-20T16:11:38.412Z,86.85
2018-12-20T16:14:07.729Z,88.04
2018-12-20T16:16:37.165Z,89.22
2018-12-20T16:19:06.477Z,89.37
2018-12-20T16:21:35.855Z,91.73
2018-12-20T16:24:05.366Z,91.68
2018-12-20T16:26:34.745Z,91.36
2018-12-20T16:29:04.177Z,90.31
2018-12-20T16:31:33.451Z,88.80
2018-12-20T16:34:03.307Z,86.74
2018-12-20T16:36:32.823Z,85.22
2018-12-20T16:39:02.165Z,84.78
2018-12-20T16:41:32.228Z,84.60
2018-12-20T16:44:02.622Z,85.99
2018-12-20T16:46:32.697Z,85.50
2018-12-20T16:49:02.009Z,86.19
2018-12-20T16:51:31.388Z,86.71
2018-12-20T16:54:00.672Z,84.93
2018-12-20T16:56:31.185Z,86.09
2018-12-20T16:59:00.447Z,87.18
2018-12-20T17:01:29.746Z,86.55
2018-12-20T17:03:59.013Z,86.86
2018-12-20T17:06:28.360Z,87.00
2018-12-20T17:08:57.625Z,87.48
2018-12-20T17:11:26.954Z,87.90
2018-12-20T17:13:56.307Z,87.76
2018-12-20T17:16:25.585Z,88.21
2018-12-20T17:18:54.944Z,87.63
2018-12-20T17:21:24.286Z,86.94
2018-12-20T17:23:53.551Z,86.44
2018-12-20T17:26:22.785Z,86.94
2018-12-20T17:28:53.357Z,87.06
2018-12-20T17:31:22.666Z,87.20
2018-12-20T17:33:51.919Z,85.32
2018-12-20T17:36:21.275Z,86.39
2018-12-20T17:38:50.645Z,86.17
2018-12-20T17:41:19.936Z,87.51
2018-12-20T17:43:49.214Z,87.02
2018-12-20T17:46:18.502Z,87.34
2018-12-20T17:48:47.798Z,88.95
2018-12-20T17:51:17.681Z,88.58
2018-12-20T17:53:47.157Z,90.45
2018-12-20T17:56:16.415Z,89.63
2018-12-20T17:58:45.706Z,90.48
2018-12-20T18:01:15.978Z,90.14
2018-12-20T18:03:45.311Z,91.41
2018-12-20T18:06:14.678Z,91.39
2018-12-20T18:08:43.938Z,91.07
2018-12-20T18:11:13.436Z,91.22
2018-12-20T18:13:42.702Z,92.19
2018-12-20T18:16:11.976Z,90.98
2018-12-20T18:18:41.581Z,91.39
2018-12-20T18:21:11.034Z,93.08
2018-12-20T18:23:40.477Z,92.58
2018-12-20T18:26:09.841Z,92.83
2018-12-20T18:28:39.113Z,90.46
2018-12-20T18:31:08.686Z,91.50
2018-12-20T18:33:38.078Z,91.63
2018-12-20T18:36:07.430Z,90.73
2018-12-20T18:38:36.830Z,91.59
2018-12-20T18:41:06.122Z,91.07
2018-12-20T18:43:35.448Z,90.68
2018-12-20T18:46:04.844Z,90.99
2018-12-20T18:48:34.300Z,89.47
2018-12-20T18:51:05.134Z,89.40
2018-12-20T18:53:35.367Z,88.92
2018-12-20T18:56:04.791Z,89.80
2018-12-20T18:58:34.142Z,89.64
2018-12-20T19:01:03.562Z,88.99
2018-12-20T19:03:33.021Z,88.29
2018-12-20T19:06:02.292Z,89.69
2018-12-20T19:08:31.574Z,88.54
2018-12-20T19:11:00.855Z,87.89
2018-12-20T19:13:30.368Z,85.99
2018-12-20T19:15:59.711Z,85.58
2018-12-20T19:18:28.997Z,85.13
2018-12-20T19:20:59.170Z,83.85
2018-12-20T19:23:28.407Z,82.32
2018-12-20T19:25:57.765Z,81.98
2018-12-20T19:28:27.008Z,81.90
2018-12-20T19:30:56.247Z,81.64
2018-12-20T19:33:25.682Z,81.58
2018-12-20T19:35:54.930Z,80.67
2018-12-20T19:38:24.182Z,81.30
2018-12-20T19:40:53.426Z,82.37
2018-12-20T19:43:22.677Z,80.19
2018-12-20T19:45:52.062Z,80.71
2018-12-20T19:48:21.386Z,80.31
2018-12-20T19:50:50.629Z,81.95
2018-12-20T19:53:19.895Z,82.16
2018-12-20T19:55:49.153Z,82.76
2018-12-20T19:58:18.445Z,82.06
2018-12-20T20:00:47.674Z,82.52
2018-12-20T20:03:16.930Z,81.73
2018-12-20T20:05:46.228Z,82.53
2018-12-20T20:08:22.153Z,83.18
2018-12-20T20:10:51.398Z,83.21
2018-12-20T20:13:20.750Z,84.38
2018-12-20T20:15:50.075Z,83.47
2018-12-20T20:18:19.328Z,83.57
2018-12-20T20:20:48.600Z,84.06
2018-12-20T20:23:17.912Z,83.81
2018-12-20T20:29:38.859Z,83.45
2018-12-20T20:32:08.178Z,83.93
2018-12-20T20:34:37.458Z,84.63
2018-12-20T20:37:06.738Z,85.60
2018-12-20T20:39:36.104Z,85.61
2018-12-20T20:42:05.567Z,84.79
2018-12-20T20:44:34.981Z,85.14
2018-12-20T20:47:04.600Z,86.47
2018-12-20T20:49:34.092Z,87.61
2018-12-20T20:52:03.365Z,87.60
2018-12-20T20:54:32.623Z,87.11
2018-12-20T20:57:01.906Z,87.81
2018-12-20T20:59:32.119Z,88.85
2018-12-20T21:02:01.509Z,89.80
2018-12-20T21:04:37.658Z,88.92
2018-12-20T21:07:06.939Z,89.85
2018-12-20T21:09:36.343Z,89.08
2018-12-20T21:12:06.329Z,88.71
2018-12-20T21:14:35.814Z,89.29
2018-12-20T21:17:05.210Z,89.88
2018-12-20T21:19:34.561Z,89.85
2018-12-20T21:22:03.942Z,90.39
2018-12-20T21:24:33.315Z,90.02
2018-12-20T21:27:02.574Z,89.16
2018-12-20T21:29:31.855Z,90.49
2018-12-20T21:32:01.229Z,91.01
2018-12-20T21:34:30.497Z,90.40
2018-12-20T21:36:59.841Z,91.01
2018-12-20T21:39:29.127Z,89.50
2018-12-20T21:41:58.542Z,89.48
2018-12-20T21:44:27.799Z,89.87
2018-12-20T21:46:57.113Z,88.71
2018-12-20T21:49:26.514Z,89.44
2018-12-20T21:51:55.838Z,88.78
2018-12-20T21:54:25.102Z,89.55
2018-12-20T21:56:54.482Z,89.51
2018-12-20T21:59:24.408Z,89.94
2018-12-20T22:01:54.300Z,90.73
2018-12-20T22:04:23.674Z,90.28
2018-12-20T22:06:52.929Z,90.34
2018-12-20T22:09:22.433Z,89.00
2018-12-20T22:11:51.767Z,90.19
2018-12-20T22:14:21.071Z,90.67
2018-12-20T22:16:50.380Z,89.50
2018-12-20T22:19:19.731Z,89.39
2018-12-20T22:21:49.012Z,90.90
2018-12-20T22:24:18.411Z,89.60
2018-12-20T22:26:47.885Z,90.11
2018-12-20T22:29:17.151Z,90.66
2018-12-20T22:31:46.470Z,91.41
2018-12-20T22:34:16.110Z,90.65
2018-12-20T22:36:45.365Z,90.68
2018-12-20T22:39:14.727Z,90.43
2018-12-20T22:41:44.018Z,91.18
2018-12-20T22:44:13.303Z,90.85
2018-12-20T22:46:42.676Z,90.03
2018-12-20T22:49:11.950Z,90.31
2018-12-20T22:51:41.481Z,90.83
2018-12-20T22:54:10.774Z,91.21
2018-12-20T22:56:40.050Z,90.39
2018-12-20T22:59:09.303Z,90.34
2018-12-20T23:01:38.530Z,91.33
2018-12-20T23:04:07.886Z,91.24
2018-12-20T23:06:37.402Z,90.66
2018-12-20T23:09:07.282Z,90.68
2018-12-20T23:11:36.548Z,90.58
2018-12-20T23:14:06.002Z,91.15
2018-12-20T23:16:35.267Z,92.08
2018-12-20T23:19:04.625Z,91.11
2018-12-20T23:21:34.201Z,91.96
2018-12-20T23:24:03.561Z,91.41
2018-12-20T23:26:32.937Z,92.15
2018-12-20T23:29:02.229Z,91.64
2018-12-20T23:31:31.516Z,91.36
2018-12-20T23:34:00.988Z,91.62
2018-12-20T23:36:30.360Z,91.93
2018-12-20T23:38:59.737Z,92.42
2018-12-20T23:41:28.998Z,91.77
2018-12-20T23:43:58.342Z,91.40
2018-12-20T23:46:27.638Z,91.62
2018-12-20T23:48:56.921Z,92.24
2018-12-20T23:51:26.178Z,91.68
2018-12-20T23:53:56.174Z,90.71
2018-12-20T23:56:25.554Z,91.19
2018-12-20T23:58:54.879Z,90.34
